createdAt,value
2017-09-25T14:07:24.801Z,17.80
2017-09-25T14:09:53.117Z,17.70
2017-09-25T14:12:21.454Z,17.60
2017-09-25T14:14:50.823Z,17.50
2017-09-25T14:17:21.245Z,17.60
2017-09-25T14:19:49.588Z,17.60
2017-09-25T14:22:17.920Z,17.60
2017-09-25T14:24:48.495Z,17.70
2017-09-25T14:27:16.816Z,17.70
2017-09-25T14:29:45.147Z,17.60
2017-09-25T14:32:14.254Z,17.80
2017-09-25T14:34:43.320Z,17.80
2017-09-25T14:37:12.002Z,17.90
2017-09-25T14:39:40.315Z,18.00
2017-09-25T14:42:09.400Z,18.20
2017-09-25T14:44:39.274Z,18.20
2017-09-25T14:47:07.570Z,18.20
2017-09-25T14:49:35.943Z,18.30
2017-09-25T14:52:04.246Z,18.40
2017-09-25T14:54:32.533Z,18.40
2017-09-25T14:57:00.826Z,18.40
2017-09-25T14:59:29.468Z,18.30
2017-09-25T15:01:57.890Z,18.30
2017-09-25T15:04:26.171Z,18.40
2017-09-25T15:06:54.483Z,18.30
2017-09-25T15:09:22.821Z,18.10
2017-09-25T15:11:51.144Z,18.10
2017-09-25T15:14:20.884Z,17.80
2017-09-25T15:16:49.878Z,17.80
2017-09-25T15:19:18.954Z,17.80
2017-09-25T15:21:47.315Z,17.70
2017-09-25T15:24:15.640Z,17.60
2017-09-25T15:26:44.473Z,17.50
2017-09-25T15:31:58.467Z,17.50
2017-09-25T15:34:26.760Z,17.40
2017-09-25T15:36:55.885Z,17.40
2017-09-25T15:39:24.174Z,17.40
2017-09-25T15:41:52.491Z,17.30
2017-09-25T15:44:22.303Z,17.10
2017-09-25T15:46:50.615Z,17.10
2017-09-25T15:49:19.680Z,16.90
2017-09-25T15:51:47.966Z,16.90
2017-09-25T15:54:17.052Z,16.80
2017-09-25T15:56:45.401Z,16.80
2017-09-25T15:59:14.736Z,16.70
2017-09-25T16:01:43.048Z,16.80
2017-09-25T16:04:11.524Z,16.70
2017-09-25T16:06:39.815Z,16.50
2017-09-25T16:09:08.107Z,16.50
2017-09-25T16:11:37.276Z,16.60
2017-09-25T16:14:05.586Z,16.50
2017-09-25T16:16:33.948Z,16.60
2017-09-25T16:19:02.952Z,16.60
2017-09-25T16:21:31.282Z,16.60
2017-09-25T16:24:00.061Z,16.60
2017-09-25T16:26:28.527Z,16.60
2017-09-25T16:28:56.803Z,16.60
2017-09-25T16:31:25.103Z,16.50
2017-09-25T16:33:54.175Z,16.40
2017-09-25T16:36:22.801Z,16.40
2017-09-25T16:38:51.095Z,16.40
2017-09-25T16:41:20.658Z,16.40
2017-09-25T16:43:48.957Z,16.40
2017-09-25T16:46:17.830Z,16.40
2017-09-25T16:48:46.975Z,16.30
2017-09-25T16:51:16.027Z,16.20
2017-09-25T16:53:44.365Z,16.20
2017-09-25T16:56:13.404Z,16.00
2017-09-25T16:58:41.709Z,15.90
2017-09-25T17:01:10.014Z,15.80
2017-09-25T17:03:39.071Z,15.60
2017-09-25T17:06:08.109Z,15.60
2017-09-25T17:08:36.786Z,15.50
2017-09-25T17:11:05.087Z,15.40
2017-09-25T17:13:33.618Z,15.30
2017-09-25T17:16:01.900Z,15.20
2017-09-25T17:18:30.234Z,15.20
2017-09-25T17:21:03.506Z,15.10
2017-09-25T17:23:32.600Z,15.10
2017-09-25T17:26:01.257Z,15.00
2017-09-25T17:28:29.558Z,15.00
2017-09-25T17:30:57.873Z,15.10
2017-09-25T17:33:26.942Z,15.10
2017-09-25T17:35:55.264Z,15.10
2017-09-25T17:38:24.348Z,15.10
2017-09-25T17:40:52.628Z,15.10
2017-09-25T17:43:20.971Z,15.20
2017-09-25T17:45:49.285Z,15.20
2017-09-25T17:48:18.764Z,15.30
2017-09-25T17:50:47.092Z,15.30
2017-09-25T17:53:15.371Z,15.30
2017-09-25T17:55:44.472Z,15.20
2017-09-25T17:58:12.817Z,15.20
2017-09-25T18:00:41.112Z,15.20
2017-09-25T18:03:09.491Z,15.20
2017-09-25T18:05:37.783Z,15.20
2017-09-25T18:08:06.115Z,15.20
2017-09-25T18:10:34.413Z,15.30
2017-09-25T18:13:02.741Z,15.30
2017-09-25T18:15:31.852Z,15.20
2017-09-25T18:18:00.940Z,15.30
2017-09-25T18:20:29.237Z,15.20
2017-09-25T18:22:58.634Z,15.30
2017-09-25T18:25:26.927Z,15.30
2017-09-25T18:27:55.250Z,15.30
2017-09-25T18:30:23.553Z,15.40
2017-09-25T18:32:51.846Z,15.40
2017-09-25T18:35:20.651Z,15.40
2017-09-25T18:37:49.740Z,15.40
2017-09-25T18:40:18.856Z,15.40
2017-09-25T18:42:48.256Z,15.40
2017-09-25T18:45:17.191Z,15.40
2017-09-25T18:47:45.495Z,15.40
2017-09-25T18:50:13.817Z,15.40
2017-09-25T18:52:42.094Z,15.40
2017-09-25T18:55:11.209Z,15.40
2017-09-25T18:57:40.390Z,15.50
2017-09-25T19:00:08.711Z,15.40
2017-09-25T19:02:37.473Z,15.40
2017-09-25T19:05:06.579Z,15.40
2017-09-25T19:07:35.384Z,15.40
2017-09-25T19:10:03.676Z,15.40
2017-09-25T19:12:32.385Z,15.40
2017-09-25T19:15:00.736Z,15.40
2017-09-25T19:17:29.037Z,15.30
2017-09-25T19:19:58.820Z,15.30
2017-09-25T19:22:27.133Z,15.30
2017-09-25T19:24:55.436Z,15.30
2017-09-25T19:27:23.751Z,15.20
2017-09-25T19:29:52.063Z,15.30
2017-09-25T19:32:21.206Z,15.20
2017-09-25T19:34:49.520Z,15.20
2017-09-25T19:37:17.938Z,15.30
2017-09-25T19:39:47.043Z,15.20
2017-09-25T19:42:16.257Z,15.20
2017-09-25T19:44:46.132Z,15.20
2017-09-25T19:47:15.229Z,15.10
2017-09-25T19:49:45.463Z,15.20
2017-09-25T19:52:14.555Z,15.20
2017-09-25T19:54:47.076Z,15.20
2017-09-25T19:57:16.984Z,15.20
2017-09-25T19:59:46.066Z,15.20
2017-09-25T20:02:14.380Z,15.10
2017-09-25T20:04:42.706Z,15.10
2017-09-25T20:07:11.015Z,15.10
2017-09-25T20:09:41.043Z,15.00
2017-09-25T20:12:10.099Z,15.00
2017-09-25T20:14:48.996Z,15.00
2017-09-25T20:17:37.113Z,14.90
2017-09-25T20:20:06.199Z,14.90
2017-09-25T20:22:34.570Z,14.90
2017-09-25T20:25:02.919Z,14.90
2017-09-25T20:27:31.272Z,14.90
2017-09-25T20:30:00.345Z,14.90
2017-09-25T20:32:29.520Z,14.90
2017-09-25T20:34:57.918Z,14.90
2017-09-25T20:37:27.972Z,14.90
2017-09-25T20:39:57.301Z,14.90
2017-09-25T20:42:25.646Z,14.90
2017-09-25T20:44:54.725Z,14.90
2017-09-25T20:47:23.044Z,14.90
2017-09-25T20:49:51.366Z,14.90
2017-09-25T20:52:20.521Z,14.90
2017-09-25T20:54:49.538Z,14.90
2017-09-25T20:57:19.513Z,14.90
2017-09-25T20:59:48.235Z,14.80
2017-09-25T21:02:16.523Z,14.90
2017-09-25T21:04:44.825Z,14.90
2017-09-25T21:07:13.141Z,14.90
2017-09-25T21:09:41.459Z,14.90
2017-09-25T21:12:09.795Z,14.90
2017-09-25T21:14:38.087Z,14.90
2017-09-25T21:17:06.831Z,14.90
2017-09-25T21:19:35.129Z,14.90
2017-09-25T21:22:03.433Z,14.90
2017-09-25T21:24:32.652Z,14.90
2017-09-25T21:27:21.897Z,14.90
2017-09-25T21:29:50.227Z,14.90
2017-09-25T21:32:18.539Z,14.90
2017-09-25T21:34:46.904Z,14.90
2017-09-25T21:37:15.228Z,14.90
2017-09-25T21:39:44.623Z,14.80
2017-09-25T21:42:12.914Z,14.80
2017-09-25T21:44:41.863Z,14.90
2017-09-25T21:47:10.168Z,14.90
2017-09-25T21:49:38.464Z,14.80
2017-09-25T21:52:06.770Z,14.80
2017-09-25T21:54:36.773Z,14.90
2017-09-25T21:57:05.134Z,14.90
2017-09-25T21:59:33.793Z,14.90
2017-09-25T22:02:03.615Z,14.70
2017-09-25T22:04:31.919Z,14.70
2017-09-25T22:07:00.346Z,14.60
2017-09-25T22:09:28.692Z,14.60
2017-09-25T22:11:57.691Z,14.60
2017-09-25T22:14:27.196Z,14.60
2017-09-25T22:16:56.671Z,14.50
2017-09-25T22:19:25.735Z,14.50
2017-09-25T22:21:54.688Z,14.50
2017-09-25T22:24:23.012Z,14.50
2017-09-25T22:26:51.635Z,14.50
2017-09-25T22:29:19.955Z,14.50
2017-09-25T22:31:48.304Z,14.50
2017-09-25T22:34:17.054Z,14.50
2017-09-25T22:36:45.359Z,14.50
2017-09-25T22:39:15.755Z,14.60
2017-09-25T22:41:44.366Z,14.60
2017-09-25T22:44:27.615Z,14.60
2017-09-25T22:46:56.968Z,14.60
2017-09-25T22:49:25.355Z,14.60
2017-09-25T22:51:53.687Z,14.60
2017-09-25T22:54:22.003Z,14.60
2017-09-25T22:56:50.629Z,14.60
2017-09-25T22:59:19.214Z,14.50
2017-09-25T23:01:47.535Z,14.40
2017-09-25T23:04:17.804Z,14.50
2017-09-25T23:06:47.083Z,14.50
2017-09-25T23:09:26.496Z,14.50
2017-09-25T23:11:55.837Z,14.40
2017-09-25T23:14:24.155Z,14.30
2017-09-25T23:16:53.034Z,14.20
2017-09-25T23:19:21.382Z,14.20
2017-09-25T23:21:49.666Z,14.20
2017-09-25T23:24:18.269Z,14.10
2017-09-25T23:26:46.600Z,14.10
2017-09-25T23:29:14.920Z,14.00
2017-09-25T23:31:48.105Z,13.90
2017-09-25T23:34:16.444Z,13.90
2017-09-25T23:36:45.234Z,13.90
2017-09-25T23:39:13.567Z,13.80
2017-09-25T23:41:41.871Z,13.80
2017-09-25T23:44:10.431Z,13.80
2017-09-25T23:46:38.773Z,13.70
2017-09-25T23:49:07.085Z,13.70
2017-09-25T23:51:36.175Z,13.70
2017-09-25T23:54:05.734Z,13.70
2017-09-25T23:56:34.874Z,13.70
2017-09-25T23:59:03.571Z,13.70
